Sudbury Airport
CYSB : rendu visible

Aérodrome :











RETROUVEZ-NOUS SUR...

 
LOGIN :

S'inscrire | Disclaimer

   EN    FR    IT 

 









Légende :    VFR   VFR Marginal   IFR   IFR Intensif   IFR Très Intensif
Visi : 
Plafond : 
>= 8 km
>= 3000ft
5 à 8 km
1000 à 3000 ft
1500m à 5 km
500 à 1000 ft
800 à 1500m
200 à 500 ft
< 800m
< 200 ft
Symboles :   Orages  Brouillard  Fortes neiges  Fortes précipitations  Vent > 20 kt






- Altitude de l'aérodrome : 1141 ft
- Code IATA : YSB


CYSB - Sudbury

DERNIER METAR :
  • 011200Z 21007KT 200V270 20SM FEW060 BKN100 BKN210 08/07 A3011 RMK CU2AC4CI1 SLP207

METARs EXPIRÉS :
  • 011100Z 26003KT 210V020 20SM -SHRA SCT060 BKN100 BKN210 07/07 A3012 RMK CU3AC3CI1 PRESRR SLP212
  • 011037Z 21008KT 20SM -SHRA SCT060 BKN100 BKN210 07/07 A3011 RMK CU4AC2CI1 SLP206
  • 011000Z 22007KT 20SM BKN120 OVC200 06/06 A3012 RMK AC6CI2 SLP211

TAF TAF CYSB
Valide du 01 à 08h jusqu'au 01 à 20h UTC


010730Z 0108/0120 24005KT P6SM SCT200
PROB30 0108/0111 1SM BR
FM011200 26010KT P6SM SCT100
BECMG 0114/0116 30012G22KT RMK NXT FCST BY 011400Z
FIR CZYZ / Amérique du Nord



MET'MAP, la Météo Aéronautique d'un coup d'oeil ! - Copyright ORBIFLY Décembre 2007 - Disclaimer

ORBIFLY MET'MAP TEAM :

Programmation & Développement : Alexandra Zaïnal
Sur une idée originale de : Baudouin d'Aumeries
Assistance à la programmation : Marc-Olivier Méhu
Soutien technique & logistique : Manuel Goepfert

Contact : metmap@orbifly.com




SOURCES & CREDITS :

   NOAA       Earth
Advisory